createdAt,value
2023-04-29T00:01:27.753Z,18.92
2023-04-29T00:03:55.093Z,18.67
2023-04-29T00:06:22.734Z,17.20
2023-04-29T00:08:50.288Z,17.40
2023-04-29T00:11:17.279Z,17.95
2023-04-29T00:13:44.579Z,17.92
2023-04-29T00:16:11.927Z,16.67
2023-04-29T00:18:38.984Z,18.40
2023-04-29T00:21:06.390Z,19.05
2023-04-29T00:23:36.654Z,18.45
2023-04-29T00:26:03.781Z,17.92
2023-04-29T00:28:30.911Z,19.20
2023-04-29T00:30:58.147Z,15.95
2023-04-29T00:33:25.491Z,17.05
2023-04-29T00:35:52.677Z,13.75
2023-04-29T00:38:21.363Z,14.70
2023-04-29T00:40:48.774Z,15.68
2023-04-29T00:43:15.890Z,14.65
2023-04-29T00:45:43.292Z,13.00
2023-04-29T00:48:10.439Z,15.10
2023-04-29T00:50:37.863Z,13.10
2023-04-29T00:53:05.284Z,11.57
2023-04-29T00:55:33.767Z,14.57
2023-04-29T00:58:02.862Z,11.75
2023-04-29T01:00:31.216Z,13.52
2023-04-29T01:03:00.066Z,13.15
2023-04-29T01:05:28.040Z,12.68
2023-04-29T01:08:14.079Z,13.43
2023-04-29T01:10:59.765Z,12.90
2023-04-29T01:13:49.458Z,13.93
2023-04-29T01:16:39.134Z,13.25
2023-04-29T01:19:21.392Z,17.75
2023-04-29T01:21:49.418Z,15.73
2023-04-29T01:24:16.990Z,15.23
2023-04-29T01:26:56.988Z,14.77
2023-04-29T01:29:41.175Z,14.05
2023-04-29T01:32:18.153Z,12.18
2023-04-29T01:34:59.009Z,14.68
2023-04-29T01:37:33.602Z,12.90
2023-04-29T01:40:37.524Z,12.98
2023-04-29T01:43:09.693Z,14.10
2023-04-29T01:45:41.404Z,15.57
2023-04-29T01:48:09.782Z,15.05
2023-04-29T01:50:36.840Z,13.32
2023-04-29T01:53:03.955Z,18.92
2023-04-29T01:55:30.951Z,15.15
2023-04-29T01:57:58.004Z,21.08
2023-04-29T02:00:25.085Z,22.48
2023-04-29T02:02:52.287Z,24.27
2023-04-29T02:05:19.434Z,24.95
2023-04-29T02:07:46.414Z,26.35
2023-04-29T02:10:13.480Z,25.77
2023-04-29T02:12:41.167Z,28.65
2023-04-29T02:15:09.175Z,32.78
2023-04-29T02:17:36.176Z,32.95
2023-04-29T02:20:03.524Z,28.40
2023-04-29T02:22:30.555Z,32.30
2023-04-29T02:24:58.461Z,37.13
2023-04-29T02:27:26.581Z,37.05
2023-04-29T02:29:53.845Z,40.72
2023-04-29T02:32:21.240Z,46.42
2023-04-29T02:34:49.450Z,46.80
2023-04-29T02:37:16.584Z,48.08
2023-04-29T02:39:43.711Z,54.28
2023-04-29T02:42:10.696Z,54.28
2023-04-29T02:44:37.727Z,51.53
2023-04-29T02:47:04.866Z,49.92
2023-04-29T02:49:31.907Z,51.78
2023-04-29T02:51:58.958Z,53.95
2023-04-29T02:54:25.994Z,53.53
2023-04-29T02:56:53.188Z,53.13
2023-04-29T02:59:20.227Z,54.53
2023-04-29T03:01:47.801Z,63.85
2023-04-29T03:04:15.021Z,61.35
2023-04-29T03:06:42.349Z,65.20
2023-04-29T03:09:09.401Z,66.75
2023-04-29T03:11:36.429Z,64.05
2023-04-29T03:14:03.923Z,62.80
2023-04-29T03:16:31.617Z,72.43
2023-04-29T03:18:58.686Z,67.63
2023-04-29T03:21:27.205Z,81.53
2023-04-29T03:23:54.256Z,75.60
2023-04-29T03:26:23.832Z,69.20
2023-04-29T03:28:51.785Z,74.45
2023-04-29T03:31:21.107Z,78.10
2023-04-29T03:33:48.288Z,69.57
2023-04-29T03:36:15.608Z,80.07
2023-04-29T03:38:43.111Z,87.60
2023-04-29T03:41:10.371Z,88.28
2023-04-29T03:43:37.407Z,98.05
2023-04-29T03:46:04.422Z,92.80
2023-04-29T03:48:31.592Z,92.25
2023-04-29T03:50:58.719Z,97.45
2023-04-29T03:53:26.443Z,83.63
2023-04-29T03:55:53.632Z,87.10
2023-04-29T03:58:20.694Z,87.70
2023-04-29T04:00:47.931Z,99.20
2023-04-29T04:03:15.265Z,90.68
2023-04-29T04:05:42.330Z,91.53
2023-04-29T04:08:09.473Z,97.20
2023-04-29T04:10:36.523Z,87.22
2023-04-29T04:13:03.600Z,82.30
2023-04-29T04:15:30.591Z,86.40
2023-04-29T04:17:57.703Z,76.60
2023-04-29T04:20:24.762Z,87.20
2023-04-29T04:22:51.816Z,86.50
2023-04-29T04:25:18.917Z,96.35
2023-04-29T04:27:45.969Z,85.80
2023-04-29T04:30:14.319Z,100.63
2023-04-29T04:32:41.393Z,97.90
2023-04-29T04:35:08.932Z,93.72
2023-04-29T04:37:36.036Z,95.60
2023-04-29T04:40:03.131Z,109.00
2023-04-29T04:42:30.632Z,79.25
2023-04-29T04:44:57.947Z,65.30
2023-04-29T04:47:25.095Z,67.57
2023-04-29T04:49:53.390Z,64.72
2023-04-29T04:52:21.916Z,66.18
2023-04-29T04:54:49.109Z,59.47
2023-04-29T04:57:16.708Z,71.63
2023-04-29T04:59:43.778Z,53.75
2023-04-29T05:02:10.830Z,71.38
2023-04-29T05:04:38.069Z,61.30
2023-04-29T05:07:05.166Z,65.95
2023-04-29T05:09:32.280Z,66.78
2023-04-29T05:11:59.496Z,61.33
2023-04-29T05:14:26.951Z,55.33
2023-04-29T05:16:54.040Z,59.42
2023-04-29T05:19:21.222Z,55.45
2023-04-29T05:21:48.209Z,58.40
2023-04-29T05:24:15.760Z,59.75
2023-04-29T05:26:44.271Z,53.22
2023-04-29T05:29:12.384Z,47.30
2023-04-29T05:31:39.499Z,47.95
2023-04-29T05:34:06.592Z,60.13
2023-04-29T05:36:33.656Z,52.25
2023-04-29T05:39:00.733Z,56.30
2023-04-29T05:41:27.830Z,49.40
2023-04-29T05:43:54.988Z,51.05
2023-04-29T05:46:23.353Z,53.42
2023-04-29T05:48:50.433Z,46.55
2023-04-29T05:51:17.717Z,51.75
2023-04-29T05:53:44.819Z,50.85
2023-04-29T05:56:12.069Z,51.13
2023-04-29T05:58:39.114Z,55.47
2023-04-29T06:01:06.249Z,52.78
2023-04-29T06:03:33.505Z,43.63
2023-04-29T06:06:01.235Z,46.03
2023-04-29T06:08:28.489Z,52.67
2023-04-29T06:10:55.890Z,51.25
2023-04-29T06:13:23.023Z,48.88
2023-04-29T06:15:50.065Z,47.97
2023-04-29T06:18:17.185Z,48.35
2023-04-29T06:20:44.193Z,44.85
2023-04-29T06:23:11.339Z,43.90
2023-04-29T06:25:38.350Z,44.17
2023-04-29T06:28:05.424Z,49.10
2023-04-29T06:30:32.482Z,46.30
2023-04-29T06:32:59.568Z,45.13
2023-04-29T06:35:26.613Z,46.88
2023-04-29T06:37:53.983Z,43.42
2023-04-29T06:40:21.068Z,38.47
2023-04-29T06:42:48.142Z,32.95
2023-04-29T06:45:15.336Z,35.03
2023-04-29T06:47:42.384Z,39.20
2023-04-29T06:50:10.008Z,37.08
2023-04-29T06:52:37.306Z,33.95
2023-04-29T06:55:04.737Z,38.22
2023-04-29T06:57:32.310Z,42.47
2023-04-29T07:00:00.075Z,40.88
2023-04-29T07:02:27.276Z,37.67
2023-04-29T07:04:54.598Z,39.35
2023-04-29T07:07:21.723Z,35.42
2023-04-29T07:09:52.224Z,39.33
2023-04-29T07:12:19.547Z,41.38
2023-04-29T07:14:46.666Z,45.40
2023-04-29T07:17:14.309Z,40.85
2023-04-29T07:19:41.403Z,48.17
2023-04-29T07:22:10.058Z,36.35
2023-04-29T07:24:37.122Z,39.25
2023-04-29T07:27:04.639Z,41.10
2023-04-29T07:29:31.862Z,43.28
2023-04-29T07:31:58.931Z,46.33
2023-04-29T07:34:26.180Z,40.63
2023-04-29T07:36:53.198Z,43.70
2023-04-29T07:39:20.180Z,47.88
2023-04-29T07:41:47.222Z,47.05
2023-04-29T07:44:15.105Z,48.53
2023-04-29T07:46:42.225Z,47.17
2023-04-29T07:49:09.532Z,44.33
2023-04-29T07:51:37.292Z,48.13
2023-04-29T07:54:04.898Z,43.28
2023-04-29T07:56:32.685Z,43.58
2023-04-29T07:59:02.672Z,45.35
2023-04-29T08:01:29.754Z,52.65
2023-04-29T08:03:57.023Z,44.38
2023-04-29T08:06:24.337Z,45.50
2023-04-29T08:08:51.446Z,40.88
2023-04-29T08:11:19.585Z,49.63
2023-04-29T08:13:46.938Z,48.15
2023-04-29T08:16:14.435Z,48.42
2023-04-29T08:18:41.716Z,49.30
2023-04-29T08:21:11.438Z,50.75
2023-04-29T08:23:39.471Z,47.03
2023-04-29T08:26:06.816Z,43.80
2023-04-29T08:28:33.964Z,47.45
2023-04-29T08:31:03.547Z,49.65
2023-04-29T08:33:30.616Z,45.45
2023-04-29T08:36:03.719Z,47.22
2023-04-29T08:38:31.247Z,43.58
2023-04-29T08:40:58.781Z,43.03
2023-04-29T08:43:27.286Z,38.35
2023-04-29T08:45:58.160Z,39.08
2023-04-29T08:48:26.829Z,38.15
2023-04-29T08:50:54.039Z,36.85
2023-04-29T08:53:21.173Z,34.50
2023-04-29T08:55:48.873Z,37.75
2023-04-29T08:58:17.043Z,36.53
2023-04-29T09:00:45.082Z,38.95
2023-04-29T09:03:19.631Z,37.03
2023-04-29T09:05:53.203Z,36.50
2023-04-29T09:08:22.568Z,35.30
2023-04-29T09:10:51.331Z,34.20
2023-04-29T09:13:32.214Z,36.08
2023-04-29T09:15:59.704Z,32.95
2023-04-29T09:18:45.804Z,34.50
2023-04-29T09:21:25.905Z,35.15
2023-04-29T09:23:58.016Z,36.22
2023-04-29T09:26:25.766Z,35.03
2023-04-29T09:29:12.053Z,39.92
2023-04-29T09:31:39.736Z,36.92
2023-04-29T09:34:07.542Z,37.95
2023-04-29T09:36:45.822Z,38.00
2023-04-29T09:39:14.046Z,40.75
2023-04-29T09:42:09.832Z,44.65
2023-04-29T09:44:36.942Z,44.60
2023-04-29T09:47:04.063Z,42.95
2023-04-29T09:49:35.518Z,40.05
2023-04-29T09:52:04.241Z,44.83
2023-04-29T09:54:33.779Z,40.40
2023-04-29T09:57:02.515Z,37.47
2023-04-29T09:59:29.648Z,37.40
2023-04-29T10:01:58.540Z,40.35
2023-04-29T10:04:27.778Z,43.15
2023-04-29T10:06:56.617Z,41.53
2023-04-29T10:09:24.441Z,42.88
2023-04-29T10:11:53.795Z,40.00
2023-04-29T10:14:26.352Z,40.70
2023-04-29T10:17:17.306Z,42.70
2023-04-29T10:20:05.996Z,41.80
2023-04-29T10:23:01.157Z,45.35
2023-04-29T10:25:29.529Z,42.88
2023-04-29T10:27:57.056Z,39.25
2023-04-29T10:30:24.275Z,37.70
2023-04-29T10:32:53.206Z,36.05
2023-04-29T10:35:24.645Z,35.42
2023-04-29T10:37:53.205Z,34.92
2023-04-29T10:40:42.816Z,72.03
2023-04-29T10:43:10.105Z,38.40
2023-04-29T10:45:38.123Z,34.60
2023-04-29T10:48:06.319Z,38.63
2023-04-29T10:50:35.875Z,43.55
2023-04-29T10:53:04.613Z,39.42
2023-04-29T10:55:37.444Z,44.03
2023-04-29T10:58:06.171Z,36.45
2023-04-29T11:00:35.880Z,44.20
2023-04-29T11:03:06.345Z,58.22
2023-04-29T11:05:38.039Z,45.55
2023-04-29T11:08:13.764Z,40.70
2023-04-29T11:10:44.824Z,41.50
2023-04-29T11:13:28.124Z,47.45
2023-04-29T11:16:12.134Z,43.95
2023-04-29T11:19:08.700Z,40.42
2023-04-29T11:21:37.023Z,41.38
2023-04-29T11:24:06.552Z,46.22
2023-04-29T11:26:37.730Z,43.42
2023-04-29T11:29:12.029Z,42.08
2023-04-29T11:31:39.746Z,40.90
2023-04-29T11:34:07.616Z,37.33
2023-04-29T11:36:36.196Z,37.92
2023-04-29T11:39:04.673Z,37.63
2023-04-29T11:41:31.940Z,37.08
2023-04-29T11:44:03.889Z,32.60
2023-04-29T11:46:32.237Z,34.75
2023-04-29T11:49:00.960Z,41.72
2023-04-29T11:51:28.830Z,40.70
2023-04-29T11:53:58.203Z,36.05
2023-04-29T11:56:26.026Z,34.85
2023-04-29T11:58:58.135Z,43.45
2023-04-29T12:01:27.236Z,38.80
2023-04-29T12:04:02.953Z,39.28
2023-04-29T12:06:32.034Z,35.70
2023-04-29T12:09:01.413Z,42.05
2023-04-29T12:11:29.159Z,39.90
2023-04-29T12:13:57.314Z,47.40
2023-04-29T12:16:24.782Z,37.30
2023-04-29T12:18:52.998Z,38.53
2023-04-29T12:21:21.918Z,43.08
2023-04-29T12:23:49.060Z,40.35
2023-04-29T12:26:17.888Z,38.97
2023-04-29T12:28:44.963Z,38.50
2023-04-29T12:31:12.054Z,40.28
2023-04-29T12:33:42.942Z,36.88
2023-04-29T12:36:18.382Z,40.08
2023-04-29T12:38:45.862Z,36.17
2023-04-29T12:41:17.524Z,36.90
2023-04-29T12:43:44.936Z,35.22
2023-04-29T12:46:15.399Z,36.55
2023-04-29T12:48:46.153Z,33.17
2023-04-29T12:51:13.587Z,35.47
2023-04-29T12:53:41.119Z,35.47
2023-04-29T12:56:08.474Z,35.05
2023-04-29T12:58:35.625Z,34.72
2023-04-29T13:01:02.741Z,34.78
2023-04-29T13:03:30.121Z,36.65
2023-04-29T13:05:57.489Z,36.83
2023-04-29T13:08:24.810Z,38.28
2023-04-29T13:10:52.029Z,36.05
2023-04-29T13:13:19.195Z,41.17
2023-04-29T13:15:46.420Z,39.10
2023-04-29T13:18:13.779Z,37.20
2023-04-29T13:20:42.675Z,31.70
2023-04-29T13:23:12.417Z,35.20
2023-04-29T13:25:40.589Z,35.10
2023-04-29T13:28:08.099Z,30.92
2023-04-29T13:30:36.455Z,32.08
2023-04-29T13:33:09.848Z,36.97
2023-04-29T13:35:41.717Z,32.63
2023-04-29T13:38:09.581Z,32.17
2023-04-29T13:40:41.691Z,30.00
2023-04-29T13:43:14.462Z,32.30
2023-04-29T13:45:47.725Z,29.35
2023-04-29T13:48:28.436Z,34.28
2023-04-29T13:54:17.616Z,32.53
2023-04-29T14:03:50.599Z,33.70
2023-04-29T14:06:17.705Z,34.50
2023-04-29T14:08:45.097Z,35.70
2023-04-29T14:11:12.236Z,36.97
2023-04-29T14:13:39.214Z,28.45
2023-04-29T14:16:07.172Z,32.85
2023-04-29T14:18:34.978Z,29.95
2023-04-29T14:21:02.097Z,33.95
2023-04-29T14:23:29.225Z,31.50
2023-04-29T14:26:11.089Z,30.83
2023-04-29T14:28:45.407Z,31.05
2023-04-29T14:31:14.445Z,33.85
2023-04-29T14:33:41.585Z,33.03
2023-04-29T14:36:09.664Z,37.17
2023-04-29T14:38:36.856Z,31.63
2023-04-29T14:41:04.283Z,31.95
2023-04-29T14:43:31.338Z,30.83
2023-04-29T14:45:58.846Z,33.42
2023-04-29T14:48:25.873Z,37.60
2023-04-29T14:50:52.962Z,33.65
2023-04-29T14:53:21.538Z,34.72
2023-04-29T14:55:50.722Z,38.55
2023-04-29T14:58:17.706Z,34.28
2023-04-29T15:00:44.979Z,36.83
2023-04-29T15:03:20.179Z,33.75
2023-04-29T15:05:52.321Z,31.02
2023-04-29T15:08:19.751Z,35.17
2023-04-29T15:10:47.854Z,28.60
2023-04-29T15:13:15.184Z,32.05
2023-04-29T15:15:42.587Z,27.85
2023-04-29T15:18:09.697Z,29.02
2023-04-29T15:20:40.740Z,25.42
2023-04-29T15:23:08.900Z,22.63
2023-04-29T15:25:36.976Z,25.73
2023-04-29T15:28:05.977Z,30.15
2023-04-29T15:30:33.383Z,24.63
2023-04-29T15:33:00.663Z,25.92
2023-04-29T15:35:27.982Z,22.75
2023-04-29T15:37:55.196Z,23.42
2023-04-29T15:40:22.383Z,19.90
2023-04-29T15:42:49.450Z,28.33
2023-04-29T15:45:17.115Z,21.92
2023-04-29T15:47:44.293Z,28.02
2023-04-29T15:50:11.627Z,26.90
2023-04-29T15:52:38.716Z,25.40
2023-04-29T15:55:07.139Z,27.73
2023-04-29T15:57:35.019Z,25.58
2023-04-29T16:00:02.273Z,23.17
2023-04-29T16:02:29.456Z,24.42
2023-04-29T16:04:56.611Z,24.85
2023-04-29T16:07:23.704Z,21.58
2023-04-29T16:09:50.952Z,26.75
2023-04-29T16:12:18.017Z,25.17
2023-04-29T16:14:45.140Z,26.77
2023-04-29T16:17:12.940Z,26.55
2023-04-29T16:19:40.446Z,22.98
2023-04-29T16:22:07.556Z,24.85
2023-04-29T16:24:34.764Z,22.45
2023-04-29T16:27:01.957Z,24.08
2023-04-29T16:29:29.002Z,21.92
2023-04-29T16:31:55.987Z,20.25
2023-04-29T16:34:23.553Z,24.10
2023-04-29T16:36:51.158Z,22.02
2023-04-29T16:39:18.274Z,21.70
2023-04-29T16:41:45.380Z,26.60
2023-04-29T16:44:12.801Z,25.83
2023-04-29T16:46:40.109Z,25.20
2023-04-29T16:49:07.606Z,27.13
2023-04-29T16:51:34.749Z,27.45
2023-04-29T16:54:01.943Z,25.23
2023-04-29T16:56:29.147Z,29.40
2023-04-29T16:58:56.164Z,29.70
2023-04-29T17:01:23.350Z,30.35
2023-04-29T17:03:50.961Z,29.88
2023-04-29T17:06:18.242Z,29.33
2023-04-29T17:08:45.750Z,29.92
2023-04-29T17:11:13.164Z,27.95
2023-04-29T17:13:40.227Z,29.40
2023-04-29T17:16:07.912Z,27.92
2023-04-29T17:18:35.040Z,28.13
2023-04-29T17:21:02.987Z,27.70
2023-04-29T17:23:30.931Z,30.10
2023-04-29T17:25:58.081Z,29.15
2023-04-29T17:28:25.162Z,25.33
2023-04-29T17:30:55.911Z,26.70
2023-04-29T17:33:22.989Z,28.20
2023-04-29T17:35:50.096Z,32.45
2023-04-29T17:38:17.863Z,33.92
2023-04-29T17:40:45.062Z,33.30
2023-04-29T17:43:12.177Z,34.47
2023-04-29T17:45:42.332Z,29.35
2023-04-29T17:48:10.170Z,34.08
2023-04-29T17:50:38.554Z,30.85
2023-04-29T17:53:05.681Z,37.90
2023-04-29T17:55:32.928Z,31.75
2023-04-29T17:58:00.555Z,28.02
2023-04-29T18:00:27.681Z,30.00
2023-04-29T18:02:54.804Z,32.78
2023-04-29T18:05:21.957Z,35.60
2023-04-29T18:07:49.045Z,32.50
2023-04-29T18:10:16.321Z,35.78
2023-04-29T18:12:43.352Z,33.33
2023-04-29T18:15:10.968Z,39.20
2023-04-29T18:17:39.618Z,32.95
2023-04-29T18:20:08.134Z,36.53
2023-04-29T18:22:35.237Z,31.10
2023-04-29T18:25:02.400Z,34.08
2023-04-29T18:27:29.472Z,33.58
2023-04-29T18:29:56.760Z,30.00
2023-04-29T18:32:23.899Z,33.70
2023-04-29T18:34:51.003Z,34.15
2023-04-29T18:37:18.099Z,36.38
2023-04-29T18:39:45.096Z,33.20
2023-04-29T18:42:12.575Z,33.67
2023-04-29T18:44:40.190Z,41.65
2023-04-29T18:47:08.522Z,40.65
2023-04-29T18:49:38.060Z,36.17
2023-04-29T18:52:05.663Z,39.90
2023-04-29T18:54:33.726Z,35.55
2023-04-29T18:57:01.211Z,36.45
2023-04-29T18:59:28.275Z,38.08
2023-04-29T19:01:55.423Z,37.05
2023-04-29T19:04:22.686Z,37.75
2023-04-29T19:06:49.769Z,37.35
2023-04-29T19:09:16.843Z,40.83
2023-04-29T19:11:44.987Z,38.33
2023-04-29T19:14:12.089Z,37.38
2023-04-29T19:16:39.643Z,38.58
2023-04-29T19:19:06.882Z,37.80
2023-04-29T19:21:34.127Z,37.65
2023-04-29T19:24:01.161Z,37.13
2023-04-29T19:26:29.069Z,37.42
2023-04-29T19:28:56.146Z,35.63
2023-04-29T19:31:23.255Z,32.97
2023-04-29T19:33:52.458Z,36.65
2023-04-29T19:36:19.507Z,36.63
2023-04-29T19:38:47.110Z,36.03
2023-04-29T19:41:14.371Z,38.45
2023-04-29T19:43:41.470Z,35.08
2023-04-29T19:46:08.638Z,40.30
2023-04-29T19:48:35.938Z,37.08
2023-04-29T19:51:06.371Z,34.17
2023-04-29T19:53:33.395Z,35.40
2023-04-29T19:56:00.425Z,36.17
2023-04-29T19:58:27.667Z,35.67
2023-04-29T20:00:55.907Z,36.15
2023-04-29T20:03:23.084Z,35.50
2023-04-29T20:05:50.124Z,36.88
2023-04-29T20:08:17.201Z,31.83
2023-04-29T20:10:46.753Z,36.58
2023-04-29T20:13:13.904Z,36.03
2023-04-29T20:15:42.314Z,40.70
2023-04-29T20:18:09.560Z,44.05
2023-04-29T20:20:36.629Z,39.95
2023-04-29T20:23:04.732Z,38.33
2023-04-29T20:25:31.905Z,37.28
2023-04-29T20:27:59.485Z,40.35
2023-04-29T20:30:26.857Z,35.67
2023-04-29T20:32:54.028Z,36.25
2023-04-29T20:35:21.734Z,36.40
2023-04-29T20:37:49.188Z,34.70
2023-04-29T20:40:16.294Z,35.85
2023-04-29T20:42:43.424Z,42.03
2023-04-29T20:45:11.819Z,45.22
2023-04-29T20:47:39.267Z,42.13
2023-04-29T20:50:07.105Z,47.10
2023-04-29T20:52:35.106Z,41.70
2023-04-29T20:55:02.484Z,38.97
2023-04-29T20:57:29.530Z,36.67
2023-04-29T20:59:56.738Z,38.30
2023-04-29T21:02:23.926Z,37.28
2023-04-29T21:04:51.163Z,36.63
2023-04-29T21:07:18.345Z,36.10
2023-04-29T21:09:47.187Z,38.13
2023-04-29T21:12:15.097Z,36.33
2023-04-29T21:14:42.866Z,35.25
2023-04-29T21:17:10.169Z,40.30
2023-04-29T21:19:37.840Z,34.78
2023-04-29T21:22:05.149Z,42.17
2023-04-29T21:24:32.300Z,40.63
2023-04-29T21:26:59.368Z,38.90
2023-04-29T21:29:26.418Z,41.17
2023-04-29T21:31:53.542Z,37.45
2023-04-29T21:34:20.618Z,38.70
2023-04-29T21:36:48.255Z,41.47
2023-04-29T21:39:15.574Z,43.38
2023-04-29T21:41:43.882Z,43.45
2023-04-29T21:44:12.147Z,44.05
2023-04-29T21:46:39.579Z,45.03
2023-04-29T21:49:07.560Z,41.42
2023-04-29T21:51:35.737Z,43.25
2023-04-29T21:54:06.169Z,43.72
2023-04-29T21:56:33.236Z,45.60
2023-04-29T21:59:03.223Z,51.92
2023-04-29T22:01:48.110Z,47.47
2023-04-29T22:04:17.205Z,47.45
2023-04-29T22:06:44.355Z,47.97
2023-04-29T22:09:11.440Z,51.10
2023-04-29T22:11:39.298Z,48.03
2023-04-29T22:14:06.321Z,49.22
2023-04-29T22:16:36.087Z,48.60
2023-04-29T22:19:03.516Z,50.22
2023-04-29T22:21:31.778Z,51.25
2023-04-29T22:23:58.854Z,47.97
2023-04-29T22:26:25.965Z,54.28
2023-04-29T22:28:53.165Z,48.83
2023-04-29T22:31:20.221Z,49.25
2023-04-29T22:33:47.307Z,51.60
2023-04-29T22:36:14.397Z,50.65
2023-04-29T22:38:41.942Z,51.90
2023-04-29T22:41:10.299Z,50.95
2023-04-29T22:43:39.985Z,54.20
2023-04-29T22:46:07.033Z,54.72
2023-04-29T22:48:34.124Z,55.88
2023-04-29T22:51:01.278Z,55.47
2023-04-29T22:53:28.541Z,54.60
2023-04-29T22:55:59.222Z,58.20
2023-04-29T22:58:26.844Z,58.28
2023-04-29T23:00:58.885Z,52.42
2023-04-29T23:03:26.858Z,63.50
2023-04-29T23:06:01.264Z,62.15
2023-04-29T23:08:28.571Z,59.13
2023-04-29T23:10:55.790Z,61.00
2023-04-29T23:13:23.160Z,58.90
2023-04-29T23:15:50.228Z,57.53
2023-04-29T23:18:17.321Z,58.72
2023-04-29T23:20:47.892Z,65.70
2023-04-29T23:23:15.025Z,61.75
2023-04-29T23:25:42.797Z,58.15
2023-04-29T23:28:09.886Z,63.15
2023-04-29T23:30:36.850Z,68.47
2023-04-29T23:33:04.108Z,66.70
2023-04-29T23:35:31.822Z,64.90
2023-04-29T23:37:59.043Z,62.05
2023-04-29T23:40:26.171Z,69.40
2023-04-29T23:42:53.326Z,61.30
2023-04-29T23:45:20.521Z,56.33
2023-04-29T23:47:47.600Z,57.58
2023-04-29T23:50:14.729Z,63.03
2023-04-29T23:52:41.907Z,55.83
2023-04-29T23:55:11.003Z,60.08
2023-04-29T23:57:38.033Z,53.63
